createdAt,value
2024-01-18T00:03:56.509Z,94310.60
2024-01-18T00:14:00.124Z,94303.27
2024-01-18T00:24:03.270Z,94289.52
2024-01-18T00:34:06.681Z,94268.17
2024-01-18T00:44:12.800Z,94263.84
2024-01-18T00:54:15.982Z,94245.57
2024-01-18T01:04:19.142Z,94251.06
2024-01-18T01:14:22.334Z,94259.27
2024-01-18T01:24:25.701Z,94272.74
2024-01-18T01:34:28.914Z,94288.46
2024-01-18T01:44:32.153Z,94282.23
2024-01-18T01:54:36.063Z,94282.02
2024-01-18T02:04:39.382Z,94282.89
2024-01-18T02:14:43.195Z,94274.39
2024-01-18T02:24:55.935Z,94281.54
2024-01-18T02:34:59.634Z,94279.01
2024-01-18T02:45:05.961Z,94279.28
2024-01-18T02:55:09.458Z,94271.48
2024-01-18T03:05:13.855Z,94245.38
2024-01-18T03:15:17.315Z,94235.92
2024-01-18T03:25:20.407Z,94234.52
2024-01-18T03:35:25.374Z,94231.60
2024-01-18T03:45:28.825Z,94233.65
2024-01-18T03:55:31.939Z,94252.51
2024-01-18T04:05:35.203Z,94259.09
2024-01-18T04:15:38.572Z,94254.17
2024-01-18T04:25:42.447Z,94260.62
2024-01-18T04:35:45.850Z,94261.19
2024-01-18T04:45:48.970Z,94276.16
2024-01-18T04:55:52.380Z,94277.92
2024-01-18T05:05:58.050Z,94281.17
2024-01-18T05:16:03.204Z,94288.31
2024-01-18T05:26:06.870Z,94294.16
2024-01-18T05:36:09.878Z,94295.35
2024-01-18T05:46:13.181Z,94301.98
2024-01-18T05:56:16.334Z,94310.46
2024-01-18T06:06:19.409Z,94317.48
2024-01-18T06:16:22.882Z,94320.08
2024-01-18T06:26:26.040Z,94322.15
2024-01-18T06:36:29.260Z,94318.31
2024-01-18T06:46:32.849Z,94323.83
2024-01-18T06:56:36.065Z,94332.00
2024-01-18T07:06:40.002Z,94340.08
2024-01-18T07:16:43.259Z,94337.66
2024-01-18T07:26:46.480Z,94341.54
2024-01-18T07:36:49.497Z,94337.16
2024-01-18T07:46:52.546Z,94338.88
2024-01-18T07:56:56.432Z,94348.08
2024-01-18T08:07:00.589Z,94356.34
2024-01-18T08:17:04.096Z,94362.14
2024-01-18T08:27:07.142Z,94375.55
2024-01-18T08:37:10.454Z,94384.27
2024-01-18T08:47:14.457Z,94395.80
2024-01-18T08:57:19.729Z,94401.38
2024-01-18T09:07:23.040Z,94415.19
2024-01-18T09:17:26.226Z,94416.34
2024-01-18T09:27:29.474Z,94422.85
2024-01-18T09:37:33.198Z,94424.75
2024-01-18T09:47:36.642Z,94431.28
2024-01-18T09:57:44.856Z,94425.44
2024-01-18T10:07:48.375Z,94421.82
2024-01-18T10:17:54.245Z,94419.80
2024-01-18T10:27:59.456Z,94434.38
2024-01-18T10:38:02.828Z,94432.54
2024-01-18T10:48:06.625Z,94435.05
2024-01-18T10:58:10.012Z,94430.87
2024-01-18T11:08:14.550Z,94438.45
2024-01-18T11:18:17.686Z,94444.50
2024-01-18T11:28:24.640Z,94445.00
2024-01-18T11:38:35.170Z,94442.20
2024-01-18T11:48:38.529Z,94430.58
2024-01-18T11:58:41.828Z,94418.06
2024-01-18T12:08:46.072Z,94413.30
2024-01-18T12:18:51.628Z,94401.88
2024-01-18T12:28:58.749Z,94403.44
2024-01-18T12:39:04.155Z,94412.58
2024-01-18T12:49:08.339Z,94418.04
2024-01-18T12:59:14.030Z,94419.40
2024-01-18T13:09:20.807Z,94438.30
2024-01-18T13:19:25.605Z,94448.92
2024-01-18T13:29:29.011Z,94458.50
2024-01-18T13:39:32.603Z,94476.09
2024-01-18T13:49:36.873Z,94489.22
2024-01-18T13:59:40.170Z,94506.57
2024-01-18T14:09:44.146Z,94505.23
2024-01-18T14:19:47.380Z,94511.73
2024-01-18T14:29:50.528Z,94519.40
2024-01-18T14:39:53.737Z,94534.66
2024-01-18T14:49:58.109Z,94525.23
2024-01-18T15:00:01.892Z,94526.65
2024-01-18T15:10:06.983Z,94520.55
2024-01-18T15:20:11.425Z,94520.98
2024-01-18T15:30:15.610Z,94530.40
2024-01-18T15:40:18.946Z,94523.06
2024-01-18T15:50:22.522Z,94514.70
2024-01-18T16:00:26.100Z,94516.30
2024-01-18T16:10:29.582Z,94504.30
2024-01-18T16:20:32.699Z,94508.52
2024-01-18T16:30:36.950Z,94523.42
2024-01-18T16:40:41.156Z,94526.61
2024-01-18T16:50:44.461Z,94531.69
2024-01-18T17:00:47.492Z,94539.73
2024-01-18T17:10:51.097Z,94526.38
2024-01-18T17:20:54.493Z,94540.78
2024-01-18T17:30:57.556Z,94548.08
2024-01-18T17:41:03.314Z,94559.08
2024-01-18T17:51:06.838Z,94586.80
2024-01-18T18:01:10.375Z,94624.65
2024-01-18T18:11:16.795Z,94658.36
2024-01-18T18:21:24.731Z,94701.91
2024-01-18T18:31:27.877Z,94746.80
2024-01-18T18:41:31.371Z,94775.93
2024-01-18T18:51:34.529Z,94806.73
2024-01-18T19:01:37.665Z,94837.70
2024-01-18T19:11:43.181Z,94866.72
2024-01-18T19:21:46.531Z,94893.70
2024-01-18T19:31:50.444Z,94925.86
2024-01-18T19:41:53.617Z,94946.33
2024-01-18T19:51:59.006Z,94982.65
2024-01-18T20:02:05.707Z,95001.20
2024-01-18T20:12:09.082Z,95022.94
2024-01-18T20:22:12.422Z,95050.55
2024-01-18T20:32:15.868Z,95081.02
2024-01-18T20:42:19.235Z,95104.48
2024-01-18T20:52:22.472Z,95136.89
2024-01-18T21:02:25.696Z,95163.87
2024-01-18T21:12:28.804Z,95189.58
2024-01-18T21:22:31.871Z,95212.95
2024-01-18T21:32:35.296Z,95248.38
2024-01-18T21:42:38.563Z,95271.70
2024-01-18T21:52:42.169Z,95305.76
2024-01-18T22:02:46.518Z,95327.19
2024-01-18T22:12:49.800Z,95365.49
2024-01-18T22:22:52.850Z,95382.93
2024-01-18T22:32:56.004Z,95413.36
2024-01-18T22:42:59.311Z,95437.18
2024-01-18T22:53:06.075Z,95456.53
2024-01-18T23:03:09.152Z,95480.85
2024-01-18T23:13:12.262Z,95529.84
2024-01-18T23:23:15.367Z,95546.38
2024-01-18T23:33:18.669Z,95580.65
2024-01-18T23:43:22.107Z,95603.70
2024-01-18T23:53:25.205Z,95622.60
